createdAt,value
2018-08-23T00:01:24.241Z,99.90
2018-08-23T00:03:53.256Z,99.90
2018-08-23T00:06:21.695Z,99.90
2018-08-23T00:08:51.096Z,99.90
2018-08-23T00:11:24.122Z,99.90
2018-08-23T00:13:52.886Z,99.90
2018-08-23T00:16:27.125Z,99.90
2018-08-23T00:18:56.718Z,99.90
2018-08-23T00:21:27.923Z,99.90
2018-08-23T00:24:03.686Z,99.90
2018-08-23T00:26:32.966Z,99.90
2018-08-23T00:29:01.889Z,99.90
2018-08-23T00:31:33.470Z,99.90
2018-08-23T00:34:02.718Z,99.90
2018-08-23T00:36:31.397Z,99.90
2018-08-23T00:39:00.176Z,99.90
2018-08-23T00:41:29.284Z,99.90
2018-08-23T00:43:57.850Z,99.90
2018-08-23T00:46:26.386Z,99.90
2018-08-23T00:48:55.215Z,99.90
2018-08-23T00:51:23.893Z,99.90
2018-08-23T00:53:57.425Z,99.90
2018-08-23T00:56:26.296Z,99.90
2018-08-23T00:59:03.976Z,99.90
2018-08-23T01:01:33.598Z,99.90
2018-08-23T01:04:02.465Z,99.90
2018-08-23T01:06:36.426Z,99.90
2018-08-23T01:09:06.344Z,99.90
2018-08-23T01:11:36.118Z,99.90
2018-08-23T01:14:04.848Z,99.90
2018-08-23T01:16:34.170Z,99.90
2018-08-23T01:19:08.422Z,99.90
2018-08-23T01:21:38.527Z,99.90
2018-08-23T01:24:07.504Z,99.90
2018-08-23T01:26:36.469Z,99.90
2018-08-23T01:29:09.305Z,99.90
2018-08-23T01:31:37.978Z,99.90
2018-08-23T01:34:06.508Z,99.90
2018-08-23T01:36:35.130Z,99.90
2018-08-23T01:39:09.576Z,99.90
2018-08-23T01:41:39.234Z,99.90
2018-08-23T01:44:08.176Z,99.90
2018-08-23T01:46:41.934Z,99.90
2018-08-23T01:49:10.864Z,99.90
2018-08-23T01:51:40.401Z,99.90
2018-08-23T01:54:09.217Z,99.90
2018-08-23T01:56:37.666Z,99.90
2018-08-23T01:59:06.064Z,99.90
2018-08-23T02:01:34.771Z,99.90
2018-08-23T02:04:05.495Z,99.90
2018-08-23T02:06:33.951Z,99.90
2018-08-23T02:09:03.155Z,99.90
2018-08-23T02:11:32.069Z,99.90
2018-08-23T02:14:00.865Z,99.90
2018-08-23T02:16:34.939Z,99.90
2018-08-23T02:19:03.210Z,99.90
2018-08-23T02:21:31.679Z,99.90
2018-08-23T02:24:00.741Z,99.90
2018-08-23T02:26:29.666Z,99.90
2018-08-23T02:28:58.307Z,99.90
2018-08-23T02:31:27.582Z,99.90
2018-08-23T02:33:56.433Z,99.90
2018-08-23T02:36:25.121Z,99.90
2018-08-23T02:38:58.845Z,99.90
2018-08-23T02:41:27.409Z,99.90
2018-08-23T02:43:56.629Z,99.90
2018-08-23T02:46:25.472Z,99.90
2018-08-23T02:48:53.612Z,99.90
2018-08-23T02:51:26.353Z,99.90
2018-08-23T02:53:55.612Z,99.90
2018-08-23T02:56:24.128Z,99.90
2018-08-23T02:58:59.126Z,99.90
2018-08-23T03:01:29.835Z,99.90
2018-08-23T03:04:03.866Z,99.90
2018-08-23T03:06:37.709Z,99.90
2018-08-23T03:09:07.044Z,99.90
2018-08-23T03:11:38.571Z,99.90
2018-08-23T03:14:07.592Z,99.90
2018-08-23T03:16:42.171Z,99.90
2018-08-23T03:19:10.567Z,99.90
2018-08-23T03:21:38.685Z,99.90
2018-08-23T03:24:07.125Z,99.90
2018-08-23T03:26:35.797Z,99.90
2018-08-23T03:29:06.006Z,99.90
2018-08-23T03:31:34.614Z,99.90
2018-08-23T03:34:03.356Z,99.90
2018-08-23T03:36:32.215Z,99.90
2018-08-23T03:39:00.715Z,99.90
2018-08-23T03:41:29.237Z,99.90
2018-08-23T03:43:58.590Z,99.90
2018-08-23T03:46:27.126Z,99.90
2018-08-23T03:49:05.128Z,99.90
2018-08-23T03:51:37.502Z,99.90
2018-08-23T03:54:05.552Z,99.90
2018-08-23T03:56:33.862Z,99.90
2018-08-23T04:06:32.969Z,99.90
2018-08-23T04:09:01.013Z,99.90
2018-08-23T04:11:29.551Z,99.90
2018-08-23T04:13:57.760Z,99.90
2018-08-23T04:16:26.805Z,99.90
2018-08-23T04:18:55.920Z,99.90
2018-08-23T04:21:24.635Z,99.90
2018-08-23T04:23:52.994Z,99.90
2018-08-23T04:26:21.956Z,99.90
2018-08-23T04:28:50.264Z,99.90
2018-08-23T04:31:18.634Z,99.90
2018-08-23T04:33:47.158Z,99.90
2018-08-23T04:36:25.360Z,99.90
2018-08-23T04:38:58.450Z,99.90
2018-08-23T04:41:27.566Z,99.90
2018-08-23T04:43:58.632Z,99.90
2018-08-23T04:46:27.434Z,99.90
2018-08-23T04:48:55.498Z,99.90
2018-08-23T04:51:23.684Z,99.90
2018-08-23T04:53:52.403Z,99.90
2018-08-23T04:56:20.846Z,99.90
2018-08-23T04:58:49.165Z,99.90
2018-08-23T05:01:18.015Z,99.90
2018-08-23T05:03:47.205Z,99.90
2018-08-23T05:06:15.273Z,99.90
2018-08-23T05:08:43.821Z,99.90
2018-08-23T05:11:12.498Z,99.90
2018-08-23T05:13:40.793Z,99.90
2018-08-23T05:16:09.222Z,99.90
2018-08-23T05:18:37.274Z,99.90
2018-08-23T05:21:05.724Z,99.90
2018-08-23T05:23:34.638Z,99.90
2018-08-23T05:26:08.049Z,99.90
2018-08-23T05:28:38.380Z,99.90
2018-08-23T05:31:06.941Z,99.90
2018-08-23T05:33:35.753Z,99.90
2018-08-23T05:36:08.386Z,99.90
2018-08-23T05:38:36.970Z,99.90
2018-08-23T05:41:10.127Z,99.90
2018-08-23T05:43:38.469Z,99.90
2018-08-23T05:46:06.874Z,99.90
2018-08-23T05:48:35.471Z,99.90
2018-08-23T05:51:11.587Z,99.90
2018-08-23T05:53:57.885Z,99.90
2018-08-23T05:56:26.502Z,99.90
2018-08-23T05:58:59.257Z,99.90
2018-08-23T06:01:27.572Z,99.90
2018-08-23T06:03:56.088Z,99.90
2018-08-23T06:06:24.804Z,99.90
2018-08-23T06:08:57.462Z,99.90
2018-08-23T06:11:25.702Z,99.90
2018-08-23T06:13:56.125Z,99.90
2018-08-23T06:16:24.197Z,99.90
2018-08-23T06:18:52.424Z,99.90
2018-08-23T06:21:21.083Z,99.90
2018-08-23T06:23:57.651Z,99.90
2018-08-23T06:27:03.742Z,99.90
2018-08-23T06:29:34.946Z,99.90
2018-08-23T06:32:07.664Z,99.90
2018-08-23T06:34:38.158Z,99.90
2018-08-23T06:38:39.041Z,99.90
2018-08-23T06:41:11.508Z,99.90
2018-08-23T06:46:48.106Z,99.90
2018-08-23T06:49:16.204Z,95.50
2018-08-23T06:51:44.362Z,94.50
2018-08-23T06:54:13.332Z,94.40
2018-08-23T06:56:42.173Z,94.20
2018-08-23T06:59:10.525Z,95.40
2018-08-23T07:01:44.460Z,94.60
2018-08-23T07:04:14.358Z,94.40
2018-08-23T07:06:44.824Z,94.20
2018-08-23T07:09:14.977Z,94.20
2018-08-23T07:11:43.513Z,93.20
2018-08-23T07:14:14.791Z,91.20
2018-08-23T07:16:44.690Z,90.70
2018-08-23T07:19:20.106Z,90.70
2018-08-23T07:21:48.596Z,92.10
2018-08-23T07:24:22.334Z,91.70
2018-08-23T07:26:50.977Z,90.60
2018-08-23T07:29:19.106Z,88.70
2018-08-23T07:31:52.624Z,86.80
2018-08-23T07:34:22.957Z,89.30
2018-08-23T07:37:06.236Z,87.10
2018-08-23T07:39:35.212Z,89.30
2018-08-23T07:42:08.855Z,87.90
2018-08-23T07:44:37.890Z,88.70
2018-08-23T07:47:06.334Z,90.00
2018-08-23T07:49:42.610Z,88.10
2018-08-23T07:52:12.038Z,87.50
2018-08-23T07:54:40.913Z,88.00
2018-08-23T07:57:09.287Z,84.10
2018-08-23T07:59:39.871Z,84.10
2018-08-23T08:02:12.620Z,83.40
2018-08-23T08:04:41.051Z,81.50
2018-08-23T08:07:11.413Z,82.10
2018-08-23T08:09:42.499Z,81.40
2018-08-23T08:12:16.083Z,81.30
2018-08-23T08:14:45.533Z,85.80
2018-08-23T08:17:47.285Z,85.90
2018-08-23T08:20:17.115Z,79.90
2018-08-23T08:22:46.010Z,80.00
2018-08-23T08:25:21.194Z,78.20
2018-08-23T08:27:51.103Z,79.60
2018-08-23T08:30:24.324Z,83.90
2018-08-23T08:32:52.885Z,87.80
2018-08-23T08:35:21.379Z,84.50
2018-08-23T08:37:50.419Z,84.50
2018-08-23T08:40:24.194Z,88.50
2018-08-23T08:42:59.008Z,90.60
2018-08-23T08:45:31.547Z,89.00
2018-08-23T08:48:22.576Z,85.70
2018-08-23T08:51:30.585Z,90.30
2018-08-23T08:54:00.940Z,91.80
2018-08-23T08:56:35.020Z,93.30
2018-08-23T08:59:05.291Z,92.50
2018-08-23T09:01:33.776Z,92.50
2018-08-23T09:04:02.686Z,93.80
2018-08-23T09:06:36.185Z,93.70
2018-08-23T09:09:11.017Z,93.60
2018-08-23T09:12:03.405Z,93.70
2018-08-23T09:14:32.590Z,92.40
2018-08-23T09:17:05.341Z,92.70
2018-08-23T09:19:39.551Z,92.50
2018-08-23T09:22:13.675Z,91.20
2018-08-23T09:24:44.755Z,91.40
2018-08-23T09:27:17.167Z,92.60
2018-08-23T09:29:45.746Z,92.70
2018-08-23T09:32:18.763Z,93.70
2018-08-23T09:34:47.937Z,93.00
2018-08-23T09:37:16.824Z,92.60
2018-08-23T09:39:46.810Z,93.10
2018-08-23T09:45:36.420Z,92.00
2018-08-23T09:48:05.803Z,93.50
2018-08-23T09:50:35.684Z,92.80
2018-08-23T09:53:09.880Z,92.90
2018-08-23T09:55:38.403Z,93.30
2018-08-23T09:58:06.740Z,93.40
2018-08-23T10:00:40.697Z,95.30
2018-08-23T10:10:35.226Z,93.90
2018-08-23T10:13:11.943Z,94.10
2018-08-23T10:16:00.649Z,94.90
2018-08-23T10:18:35.021Z,93.70
2018-08-23T10:21:04.078Z,92.80
2018-08-23T10:23:33.795Z,92.30
2018-08-23T10:26:07.751Z,94.00
2018-08-23T10:28:43.896Z,94.00
2018-08-23T10:31:12.809Z,94.00
2018-08-23T10:33:41.043Z,94.10
2018-08-23T10:36:09.916Z,94.00
2018-08-23T10:38:38.819Z,92.50
2018-08-23T10:41:07.202Z,93.20
2018-08-23T10:43:40.987Z,92.80
2018-08-23T10:46:09.954Z,92.70
2018-08-23T10:48:38.201Z,92.70
2018-08-23T10:51:06.790Z,93.00
2018-08-23T10:53:35.358Z,92.70
2018-08-23T10:56:03.614Z,93.40
2018-08-23T10:58:33.334Z,92.90
2018-08-23T11:01:01.929Z,93.30
2018-08-23T11:03:38.497Z,92.40
2018-08-23T11:06:08.070Z,93.30
2018-08-23T11:08:37.921Z,92.90
2018-08-23T11:11:12.268Z,93.60
2018-08-23T11:13:47.542Z,94.20
2018-08-23T11:16:21.624Z,93.20
2018-08-23T11:18:55.838Z,93.30
2018-08-23T11:21:26.744Z,93.70
2018-08-23T11:23:55.682Z,92.50
2018-08-23T11:26:25.106Z,92.90
2018-08-23T11:28:53.871Z,92.40
2018-08-23T11:31:33.686Z,93.50
2018-08-23T11:34:02.063Z,92.90
2018-08-23T11:36:31.747Z,92.10
2018-08-23T11:39:00.614Z,92.60
2018-08-23T11:41:29.128Z,91.70
2018-08-23T11:43:58.210Z,91.20
2018-08-23T11:49:34.357Z,91.80
2018-08-23T11:52:03.128Z,92.80
2018-08-23T11:54:50.603Z,91.00
2018-08-23T11:57:30.077Z,88.10
2018-08-23T12:00:09.501Z,88.40
2018-08-23T12:02:58.017Z,90.00
2018-08-23T12:05:31.606Z,90.10
2018-08-23T12:08:00.462Z,90.90
2018-08-23T12:10:29.253Z,91.60
2018-08-23T12:13:02.225Z,92.00
2018-08-23T12:15:32.686Z,91.30
2018-08-23T12:18:04.742Z,90.50
2018-08-23T12:20:33.876Z,90.50
2018-08-23T12:23:03.320Z,90.40
2018-08-23T12:25:31.846Z,90.90
2018-08-23T12:28:07.164Z,91.50
2018-08-23T12:30:35.833Z,91.30
2018-08-23T12:33:04.289Z,91.00
2018-08-23T12:35:35.933Z,92.10
2018-08-23T12:38:17.785Z,92.00
2018-08-23T12:40:52.450Z,91.20
2018-08-23T12:43:22.343Z,90.80
2018-08-23T12:45:53.851Z,91.60
2018-08-23T12:48:22.848Z,91.40
2018-08-23T12:50:51.241Z,91.40
2018-08-23T12:53:19.965Z,92.10
2018-08-23T12:55:48.775Z,91.90
2018-08-23T12:58:17.341Z,92.00
2018-08-23T13:00:47.486Z,91.30
2018-08-23T13:03:15.852Z,91.60
2018-08-23T13:05:44.388Z,92.00
2018-08-23T13:08:13.293Z,91.90
2018-08-23T13:10:41.823Z,91.90
2018-08-23T13:13:11.449Z,92.30
2018-08-23T13:15:40.532Z,92.20
2018-08-23T13:18:14.365Z,92.70
2018-08-23T13:20:43.495Z,92.90
2018-08-23T13:23:12.349Z,92.80
2018-08-23T13:25:46.210Z,93.20
2018-08-23T13:28:14.837Z,93.50
2018-08-23T13:30:44.173Z,93.70
2018-08-23T13:33:12.921Z,93.80
2018-08-23T13:35:43.024Z,93.50
2018-08-23T13:38:11.648Z,93.80
2018-08-23T13:43:17.326Z,93.40
2018-08-23T13:46:18.699Z,93.80
2018-08-23T13:48:47.956Z,94.60
2018-08-23T13:51:17.315Z,93.90
2018-08-23T13:53:46.111Z,94.00
2018-08-23T13:56:14.503Z,94.40
2018-08-23T13:58:45.428Z,94.80
2018-08-23T14:01:16.521Z,94.60
2018-08-23T14:04:06.405Z,94.60
2018-08-23T14:06:38.485Z,94.50
2018-08-23T14:09:07.078Z,94.70
2018-08-23T14:11:48.267Z,94.20
2018-08-23T14:14:18.864Z,94.60
2018-08-23T14:16:47.276Z,94.20
2018-08-23T14:19:15.813Z,93.80
2018-08-23T14:21:45.031Z,94.00
2018-08-23T14:24:36.701Z,94.00
2018-08-23T14:27:05.682Z,93.30
2018-08-23T14:29:34.391Z,93.70
2018-08-23T14:32:03.545Z,94.10
2018-08-23T14:34:32.469Z,93.30
2018-08-23T14:37:11.274Z,94.20
2018-08-23T14:39:40.849Z,93.60
2018-08-23T14:42:09.494Z,94.10
2018-08-23T14:44:38.030Z,93.90
2018-08-23T14:50:08.976Z,93.40
2018-08-23T14:52:42.392Z,93.50
2018-08-23T14:55:14.578Z,92.90
2018-08-23T14:57:45.336Z,93.00
2018-08-23T15:00:15.654Z,93.50
2018-08-23T15:02:44.156Z,93.10
2018-08-23T15:05:12.706Z,93.00
2018-08-23T15:07:41.462Z,93.70
2018-08-23T15:10:10.151Z,93.40
2018-08-23T15:13:03.186Z,93.10
2018-08-23T15:15:37.851Z,93.10
2018-08-23T15:18:06.362Z,92.80
2018-08-23T15:20:34.874Z,93.10
2018-08-23T15:23:03.598Z,93.40
2018-08-23T15:25:33.446Z,93.30
2018-08-23T15:28:02.134Z,93.40
2018-08-23T15:30:31.346Z,93.50
2018-08-23T15:33:00.630Z,93.60
2018-08-23T15:35:29.220Z,93.70
2018-08-23T15:38:02.232Z,93.50
2018-08-23T15:40:31.825Z,93.50
2018-08-23T15:46:28.121Z,93.70
2018-08-23T15:48:57.379Z,95.40
2018-08-23T15:51:28.958Z,94.20
2018-08-23T15:53:58.000Z,93.70
2018-08-23T15:56:26.232Z,93.90
2018-08-23T15:58:54.795Z,93.80
2018-08-23T16:01:37.734Z,95.60
2018-08-23T16:06:45.415Z,94.80
2018-08-23T16:09:15.177Z,94.90
2018-08-23T16:11:44.113Z,94.70
2018-08-23T16:14:13.110Z,93.90
2018-08-23T16:16:54.461Z,94.70
2018-08-23T16:19:29.330Z,95.30
2018-08-23T16:21:58.943Z,95.70
2018-08-23T16:24:28.894Z,96.30
2018-08-23T16:27:05.689Z,97.40
2018-08-23T16:29:34.991Z,97.70
2018-08-23T16:32:03.757Z,98.70
2018-08-23T16:34:32.291Z,99.10
2018-08-23T16:37:01.121Z,99.80
2018-08-23T16:39:29.671Z,99.70
2018-08-23T16:41:58.180Z,99.70
2018-08-23T16:44:27.201Z,99.90
2018-08-23T16:46:55.520Z,99.90
2018-08-23T16:49:24.594Z,99.90
2018-08-23T16:51:53.750Z,99.90
2018-08-23T16:54:22.063Z,99.90
2018-08-23T16:56:50.546Z,99.90
2018-08-23T16:59:19.670Z,99.90
2018-08-23T17:01:56.381Z,99.90
2018-08-23T17:04:30.857Z,99.90
2018-08-23T17:07:04.883Z,99.90
2018-08-23T17:09:33.844Z,99.90
2018-08-23T17:12:02.648Z,99.90
2018-08-23T17:20:47.552Z,99.90
2018-08-23T17:23:16.388Z,99.90
2018-08-23T17:25:44.635Z,99.90
2018-08-23T17:28:13.285Z,99.90
2018-08-23T17:30:41.829Z,99.90
2018-08-23T17:33:10.152Z,99.90
2018-08-23T17:35:38.948Z,99.90
2018-08-23T17:38:07.612Z,99.90
2018-08-23T17:40:37.293Z,99.90
2018-08-23T17:43:06.714Z,99.90
2018-08-23T17:45:35.038Z,99.90
2018-08-23T17:48:03.316Z,99.90
2018-08-23T17:50:31.850Z,99.90
2018-08-23T17:53:00.249Z,99.90
2018-08-23T17:55:29.218Z,99.90
2018-08-23T17:57:57.784Z,99.90
2018-08-23T18:00:26.767Z,99.90
2018-08-23T18:02:55.254Z,99.90
2018-08-23T18:05:24.230Z,99.90
2018-08-23T18:07:53.108Z,99.90
2018-08-23T18:10:21.905Z,99.90
2018-08-23T18:12:50.641Z,99.90
2018-08-23T18:15:19.552Z,99.90
2018-08-23T18:17:48.106Z,99.90
2018-08-23T18:20:16.674Z,99.90
2018-08-23T18:22:45.337Z,99.90
2018-08-23T18:25:13.566Z,99.90
2018-08-23T18:27:42.904Z,99.90
2018-08-23T18:30:11.328Z,99.90
2018-08-23T18:32:40.345Z,99.90
2018-08-23T18:35:08.887Z,99.90
2018-08-23T18:37:37.781Z,99.90
2018-08-23T18:40:06.369Z,99.90
2018-08-23T18:42:35.850Z,99.90
2018-08-23T18:45:05.099Z,99.90
2018-08-23T18:47:33.994Z,99.90
2018-08-23T18:50:03.305Z,99.90
2018-08-23T18:52:31.929Z,99.90
2018-08-23T18:55:00.444Z,99.90
2018-08-23T18:57:29.254Z,99.90
2018-08-23T18:59:57.848Z,99.90
2018-08-23T19:02:26.355Z,99.90
2018-08-23T19:04:55.227Z,99.90
2018-08-23T19:07:29.092Z,99.90
2018-08-23T19:10:00.223Z,99.90
2018-08-23T19:12:29.539Z,99.90
2018-08-23T19:14:58.142Z,99.90
2018-08-23T19:17:38.152Z,99.90
2018-08-23T19:20:07.376Z,99.90
2018-08-23T19:22:38.518Z,99.90
2018-08-23T19:25:07.842Z,99.90
2018-08-23T19:27:37.080Z,99.90
2018-08-23T19:30:06.457Z,99.90
2018-08-23T19:32:36.604Z,99.90
2018-08-23T19:35:06.534Z,99.90
2018-08-23T19:37:35.584Z,99.90
2018-08-23T19:40:04.777Z,99.90
2018-08-23T19:42:33.985Z,99.90
2018-08-23T19:45:03.176Z,99.90
2018-08-23T19:47:36.628Z,99.90
2018-08-23T19:50:10.640Z,99.90
2018-08-23T19:52:38.950Z,99.90
2018-08-23T19:55:08.291Z,99.90
2018-08-23T19:57:37.453Z,99.90
2018-08-23T20:00:06.589Z,99.90
2018-08-23T20:02:36.505Z,99.90
2018-08-23T20:05:05.348Z,99.90
2018-08-23T20:07:33.841Z,99.90
2018-08-23T20:13:10.810Z,99.90
2018-08-23T20:15:39.194Z,99.90
2018-08-23T20:18:08.010Z,99.90
2018-08-23T20:20:36.396Z,99.90
2018-08-23T20:23:05.638Z,99.90
2018-08-23T20:25:34.881Z,99.90
2018-08-23T20:28:03.217Z,99.90
2018-08-23T20:30:31.692Z,99.90
2018-08-23T20:33:01.984Z,99.90
2018-08-23T20:35:31.240Z,99.90
2018-08-23T20:38:01.329Z,99.90
2018-08-23T20:40:30.463Z,99.90
2018-08-23T20:42:59.051Z,99.90
2018-08-23T20:45:27.616Z,99.90
2018-08-23T20:47:56.125Z,99.90
2018-08-23T20:50:24.400Z,99.90
2018-08-23T20:52:52.682Z,99.90
2018-08-23T20:55:21.252Z,99.90
2018-08-23T20:58:16.820Z,99.90
2018-08-23T21:00:45.593Z,99.90
2018-08-23T21:03:14.062Z,99.90
2018-08-23T21:05:53.518Z,99.90
2018-08-23T21:08:22.546Z,99.90
2018-08-23T21:10:50.929Z,99.90
2018-08-23T21:13:19.162Z,99.90
2018-08-23T21:15:53.255Z,99.90
2018-08-23T21:18:22.076Z,99.90
2018-08-23T21:20:50.545Z,99.90
2018-08-23T21:23:19.342Z,99.90
2018-08-23T21:25:48.180Z,99.90
2018-08-23T21:28:16.677Z,99.90
2018-08-23T21:30:45.217Z,99.90
2018-08-23T21:33:13.561Z,99.90
2018-08-23T21:35:41.986Z,99.90
2018-08-23T21:38:10.777Z,99.90
2018-08-23T21:40:39.303Z,99.90
2018-08-23T21:43:07.834Z,99.90
2018-08-23T21:45:36.707Z,99.90
2018-08-23T21:48:05.942Z,99.90
2018-08-23T21:50:34.586Z,99.90
2018-08-23T21:53:03.610Z,99.90
2018-08-23T21:55:39.331Z,99.90
2018-08-23T21:58:10.970Z,99.90
2018-08-23T22:00:48.690Z,99.90
2018-08-23T22:03:17.163Z,99.90
2018-08-23T22:05:46.083Z,99.90
2018-08-23T22:08:14.522Z,99.90
2018-08-23T22:10:43.182Z,99.90
2018-08-23T22:13:12.208Z,99.90
2018-08-23T22:15:47.063Z,99.90
2018-08-23T22:18:15.742Z,99.90
2018-08-23T22:20:44.462Z,99.90
2018-08-23T22:23:12.920Z,99.90
2018-08-23T22:25:41.446Z,99.90
2018-08-23T22:28:10.755Z,99.90
2018-08-23T22:30:39.916Z,99.90
2018-08-23T22:33:09.146Z,99.90
2018-08-23T22:35:38.191Z,99.90
2018-08-23T22:38:06.999Z,99.90
2018-08-23T22:40:36.136Z,99.90
2018-08-23T22:43:05.282Z,99.90
2018-08-23T22:45:33.753Z,99.90
2018-08-23T22:48:02.269Z,99.90
2018-08-23T22:50:30.821Z,99.90
2018-08-23T22:52:59.302Z,99.90
2018-08-23T22:55:27.877Z,99.90
2018-08-23T22:57:56.994Z,99.90
2018-08-23T23:00:31.331Z,99.90
2018-08-23T23:02:59.532Z,99.90
2018-08-23T23:05:28.143Z,99.90
2018-08-23T23:08:00.535Z,99.90
2018-08-23T23:10:28.968Z,99.90
2018-08-23T23:12:57.669Z,99.90
2018-08-23T23:15:26.364Z,99.90
2018-08-23T23:17:54.805Z,99.90
2018-08-23T23:20:23.779Z,99.90
2018-08-23T23:22:52.076Z,99.90
2018-08-23T23:25:20.570Z,99.90
2018-08-23T23:27:49.476Z,99.90
2018-08-23T23:30:18.110Z,99.90
2018-08-23T23:32:46.908Z,99.90
2018-08-23T23:35:15.959Z,99.90
2018-08-23T23:37:44.476Z,99.90
2018-08-23T23:40:13.207Z,99.90
2018-08-23T23:42:42.314Z,99.90
2018-08-23T23:45:11.213Z,99.90
2018-08-23T23:47:39.773Z,99.90
2018-08-23T23:50:08.667Z,99.90
2018-08-23T23:52:37.168Z,99.90
2018-08-23T23:55:05.682Z,99.90
2018-08-23T23:57:34.867Z,99.90
